createdAt,value
2018-04-07T00:00:31.189Z,0.00
2018-04-07T00:01:31.296Z,0.00
2018-04-07T00:02:31.464Z,0.00
2018-04-07T00:03:31.466Z,0.00
2018-04-07T00:04:31.513Z,0.00
2018-04-07T00:05:31.606Z,0.00
2018-04-07T00:06:31.695Z,0.00
2018-04-07T00:07:31.962Z,0.00
2018-04-07T00:08:31.932Z,0.00
2018-04-07T00:09:32.055Z,0.00
2018-04-07T00:10:32.185Z,0.00
2018-04-07T00:11:32.276Z,0.00
2018-04-07T00:12:32.362Z,0.00
2018-04-07T00:13:32.463Z,0.00
2018-04-07T00:14:32.554Z,0.00
2018-04-07T00:15:32.668Z,0.00
2018-04-07T00:16:32.755Z,0.00
2018-04-07T00:17:32.844Z,0.00
2018-04-07T00:18:32.935Z,0.00
2018-04-07T00:19:33.022Z,0.00
2018-04-07T00:20:33.109Z,0.00
2018-04-07T00:21:33.197Z,0.00
2018-04-07T00:22:33.287Z,0.00
2018-04-07T00:23:33.377Z,0.00
2018-04-07T00:24:33.463Z,0.00
2018-04-07T00:25:33.555Z,0.00
2018-04-07T00:26:33.645Z,0.00
2018-04-07T00:27:33.721Z,0.00
2018-04-07T00:28:33.814Z,0.00
2018-04-07T00:29:33.904Z,0.00
2018-04-07T00:30:33.990Z,0.00
2018-04-07T00:31:34.081Z,0.00
2018-04-07T00:32:34.172Z,0.00
2018-04-07T00:33:34.263Z,0.00
2018-04-07T00:34:34.353Z,0.00
2018-04-07T00:35:34.432Z,0.00
2018-04-07T00:36:34.526Z,0.00
2018-04-07T00:37:34.615Z,0.00
2018-04-07T00:38:34.702Z,0.00
2018-04-07T00:39:34.771Z,0.00
2018-04-07T00:40:34.881Z,0.00
2018-04-07T00:41:34.971Z,0.00
2018-04-07T00:42:35.056Z,0.00
2018-04-07T00:43:35.149Z,0.00
2018-04-07T00:44:35.232Z,0.00
2018-04-07T00:45:35.349Z,0.00
2018-04-07T00:46:35.443Z,0.00
2018-04-07T00:47:35.530Z,0.00
2018-04-07T00:48:35.622Z,0.00
2018-04-07T00:49:35.714Z,0.00
2018-04-07T00:50:35.804Z,0.00
2018-04-07T00:51:35.890Z,0.00
2018-04-07T00:52:35.977Z,0.00
2018-04-07T00:53:36.080Z,0.00
2018-04-07T00:54:36.174Z,0.00
2018-04-07T00:55:36.262Z,0.00
2018-04-07T00:56:36.351Z,0.00
2018-04-07T00:57:36.438Z,0.00
2018-04-07T00:58:36.524Z,0.00
2018-04-07T00:59:36.614Z,0.00
2018-04-07T01:00:36.728Z,0.00
2018-04-07T01:01:36.816Z,0.00
2018-04-07T01:02:36.910Z,0.00
2018-04-07T01:03:36.999Z,0.00
2018-04-07T01:04:37.087Z,0.00
2018-04-07T01:05:37.177Z,0.00
2018-04-07T01:06:37.267Z,0.00
2018-04-07T01:07:37.353Z,0.00
2018-04-07T01:08:37.443Z,0.00
2018-04-07T01:09:37.536Z,0.00
2018-04-07T01:10:37.627Z,0.00
2018-04-07T01:11:37.714Z,0.00
2018-04-07T01:12:37.802Z,0.00
2018-04-07T01:13:37.881Z,0.00
2018-04-07T01:14:37.975Z,0.00
2018-04-07T01:15:38.065Z,0.00
2018-04-07T01:16:38.155Z,0.00
2018-04-07T01:17:38.244Z,0.00
2018-04-07T01:18:38.340Z,0.00
2018-04-07T01:19:38.421Z,0.00
2018-04-07T01:20:38.510Z,0.00
2018-04-07T01:21:38.601Z,0.00
2018-04-07T01:22:38.690Z,0.00
2018-04-07T01:23:38.778Z,0.00
2018-04-07T01:24:38.867Z,0.00
2018-04-07T01:25:38.963Z,0.00
2018-04-07T01:26:39.058Z,0.00
2018-04-07T01:27:39.141Z,4.00
2018-04-07T01:28:39.227Z,0.00
2018-04-07T01:29:39.319Z,0.00
2018-04-07T01:30:39.416Z,0.00
2018-04-07T01:31:39.500Z,0.00
2018-04-07T01:32:39.587Z,0.00
2018-04-07T01:33:39.678Z,0.00
2018-04-07T01:34:39.762Z,0.00
2018-04-07T01:35:39.857Z,0.00
2018-04-07T01:36:39.943Z,0.00
2018-04-07T01:37:40.033Z,0.00
2018-04-07T01:38:40.114Z,0.00
2018-04-07T01:39:40.199Z,0.00
2018-04-07T01:40:40.290Z,0.00
2018-04-07T01:41:40.379Z,0.00
2018-04-07T01:42:40.468Z,0.00
2018-04-07T01:43:40.556Z,0.00
2018-04-07T01:44:40.645Z,0.00
2018-04-07T01:45:40.734Z,0.00
2018-04-07T01:46:40.820Z,0.00
2018-04-07T01:47:40.908Z,0.00
2018-04-07T01:48:41.000Z,0.00
2018-04-07T01:49:41.090Z,0.00
2018-04-07T01:50:41.178Z,0.00
2018-04-07T01:51:41.266Z,0.00
2018-04-07T01:52:41.355Z,0.00
2018-04-07T01:53:41.441Z,0.00
2018-04-07T01:54:41.530Z,0.00
2018-04-07T01:55:41.623Z,0.00
2018-04-07T01:56:41.714Z,0.00
2018-04-07T01:57:41.797Z,0.00
2018-04-07T01:58:41.885Z,0.00
2018-04-07T01:59:41.978Z,0.00
2018-04-07T02:00:42.065Z,0.00
2018-04-07T02:01:42.146Z,0.00
2018-04-07T02:02:42.234Z,0.00
2018-04-07T02:03:42.327Z,0.00
2018-04-07T02:04:42.416Z,0.00
2018-04-07T02:05:42.505Z,0.00
2018-04-07T02:06:42.597Z,0.00
2018-04-07T02:07:42.689Z,0.00
2018-04-07T02:08:42.775Z,0.00
2018-04-07T02:09:42.860Z,0.00
2018-04-07T02:10:42.944Z,0.00
2018-04-07T02:11:43.032Z,0.00
2018-04-07T02:12:43.118Z,0.00
2018-04-07T02:13:43.207Z,0.00
2018-04-07T02:14:43.298Z,0.00
2018-04-07T02:15:43.388Z,0.00
2018-04-07T02:16:43.474Z,0.00
2018-04-07T02:17:43.590Z,0.00
2018-04-07T02:18:43.680Z,0.00
2018-04-07T02:19:43.782Z,0.00
2018-04-07T02:20:43.872Z,0.00
2018-04-07T02:21:43.959Z,0.00
2018-04-07T02:22:44.050Z,0.00
2018-04-07T02:23:44.134Z,0.00
2018-04-07T02:24:44.221Z,0.00
2018-04-07T02:25:44.294Z,0.00
2018-04-07T02:26:44.381Z,0.00
2018-04-07T02:27:44.468Z,0.00
2018-04-07T02:28:44.554Z,0.00
2018-04-07T02:29:44.630Z,0.00
2018-04-07T02:30:44.716Z,0.00
2018-04-07T02:31:44.810Z,0.00
2018-04-07T02:32:44.903Z,0.00
2018-04-07T02:33:44.974Z,0.00
2018-04-07T02:34:45.019Z,0.00
2018-04-07T02:35:45.116Z,0.00
2018-04-07T02:36:45.226Z,0.00
2018-04-07T02:37:45.374Z,0.00
2018-04-07T02:38:45.465Z,0.00
2018-04-07T02:39:45.548Z,0.00
2018-04-07T02:40:45.683Z,0.00
2018-04-07T02:41:45.768Z,0.00
2018-04-07T02:42:45.854Z,0.00
2018-04-07T02:43:45.924Z,0.00
2018-04-07T02:44:46.096Z,0.00
2018-04-07T02:45:46.054Z,0.00
2018-04-07T02:46:46.128Z,0.00
2018-04-07T02:47:46.271Z,0.00
2018-04-07T02:48:46.378Z,0.00
2018-04-07T02:49:46.468Z,0.00
2018-04-07T02:50:46.573Z,0.00
2018-04-07T02:51:46.673Z,0.00
2018-04-07T02:52:46.822Z,0.00
2018-04-07T02:53:46.909Z,0.00
2018-04-07T02:54:46.872Z,0.00
2018-04-07T02:55:47.033Z,0.00
2018-04-07T02:56:46.988Z,0.00
2018-04-07T02:57:47.094Z,0.00
2018-04-07T02:58:47.188Z,0.00
2018-04-07T02:59:47.282Z,0.00
2018-04-07T03:00:47.372Z,0.00
2018-04-07T03:01:47.462Z,0.00
2018-04-07T03:02:47.593Z,0.00
2018-04-07T03:03:47.769Z,0.00
2018-04-07T03:04:47.753Z,0.00
2018-04-07T03:05:47.888Z,0.00
2018-04-07T03:06:47.974Z,0.00
2018-04-07T03:07:48.111Z,0.00
2018-04-07T03:08:48.198Z,0.00
2018-04-07T03:09:48.340Z,0.00
2018-04-07T03:10:48.426Z,0.00
2018-04-07T03:11:48.511Z,0.00
2018-04-07T03:12:48.611Z,0.00
2018-04-07T03:13:48.716Z,0.00
2018-04-07T03:14:48.804Z,0.00
2018-04-07T03:15:48.879Z,0.00
2018-04-07T03:16:48.985Z,0.00
2018-04-07T03:17:49.074Z,0.00
2018-04-07T03:18:49.172Z,0.00
2018-04-07T03:19:49.255Z,0.00
2018-04-07T03:20:49.376Z,0.00
2018-04-07T03:21:49.494Z,0.00
2018-04-07T03:22:49.610Z,0.00
2018-04-07T03:23:49.691Z,4.00
2018-04-07T03:24:49.781Z,0.00
2018-04-07T03:25:49.861Z,0.00
2018-04-07T03:26:49.953Z,0.00
2018-04-07T03:27:50.051Z,0.00
2018-04-07T03:28:50.140Z,0.00
2018-04-07T03:29:50.228Z,0.00
2018-04-07T03:30:50.320Z,0.00
2018-04-07T03:31:50.403Z,0.00
2018-04-07T03:32:50.498Z,0.00
2018-04-07T03:33:50.582Z,0.00
2018-04-07T03:34:50.673Z,0.00
2018-04-07T03:35:50.765Z,0.00
2018-04-07T03:36:50.847Z,0.00
2018-04-07T03:37:51.036Z,0.00
2018-04-07T03:38:51.025Z,0.00
2018-04-07T03:39:51.141Z,0.00
2018-04-07T03:40:51.279Z,0.00
2018-04-07T03:41:51.284Z,0.00
2018-04-07T03:42:51.398Z,0.00
2018-04-07T03:43:51.503Z,0.00
2018-04-07T03:44:51.710Z,0.00
2018-04-07T03:45:51.692Z,0.00
2018-04-07T03:46:51.765Z,0.00
2018-04-07T03:47:51.854Z,0.00
2018-04-07T03:48:51.936Z,0.00
2018-04-07T03:49:52.082Z,0.00
2018-04-07T03:50:52.361Z,0.00
2018-04-07T03:51:52.347Z,0.00
2018-04-07T03:52:52.392Z,0.00
2018-04-07T03:53:52.540Z,0.00
2018-04-07T03:54:52.598Z,0.00
2018-04-07T03:55:52.850Z,0.00
2018-04-07T03:56:52.874Z,0.00
2018-04-07T03:57:53.087Z,0.00
2018-04-07T03:58:53.064Z,0.00
2018-04-07T03:59:53.016Z,0.00
2018-04-07T04:00:53.135Z,0.00
2018-04-07T04:01:53.314Z,0.00
2018-04-07T04:02:53.272Z,0.00
2018-04-07T04:03:53.430Z,0.00
2018-04-07T04:04:53.863Z,0.00
2018-04-07T04:05:53.596Z,0.00
2018-04-07T04:06:53.680Z,4.00
2018-04-07T04:07:53.772Z,4.00
2018-04-07T04:08:53.854Z,4.00
2018-04-07T04:09:54.127Z,4.00
2018-04-07T04:10:54.135Z,4.00
2018-04-07T04:11:54.269Z,0.00
2018-04-07T04:12:54.293Z,0.00
2018-04-07T04:13:54.213Z,4.00
2018-04-07T04:14:54.297Z,4.00
2018-04-07T04:15:54.633Z,8.00
2018-04-07T04:16:54.454Z,4.00
2018-04-07T04:17:54.554Z,8.00
2018-04-07T04:18:54.856Z,8.00
2018-04-07T04:19:54.915Z,8.00
2018-04-07T04:20:54.915Z,8.00
2018-04-07T04:21:55.074Z,8.00
2018-04-07T04:22:55.135Z,12.00
2018-04-07T04:23:55.341Z,12.00
2018-04-07T04:24:55.419Z,16.00
2018-04-07T04:25:55.388Z,12.00
2018-04-07T04:26:55.722Z,20.00
2018-04-07T04:27:55.556Z,20.00
2018-04-07T04:28:56.012Z,24.00
2018-04-07T04:29:55.788Z,32.00
2018-04-07T04:30:55.874Z,32.00
2018-04-07T04:31:56.008Z,40.00
2018-04-07T04:32:56.099Z,48.00
2018-04-07T04:33:56.296Z,56.00
2018-04-07T04:34:56.473Z,60.00
2018-04-07T04:35:56.295Z,68.00
2018-04-07T04:36:56.449Z,80.00
2018-04-07T04:37:56.556Z,92.00
2018-04-07T04:38:56.513Z,104.00
2018-04-07T04:39:56.774Z,112.00
2018-04-07T04:40:56.781Z,124.00
2018-04-07T04:41:56.853Z,136.00
2018-04-07T04:42:56.941Z,148.00
2018-04-07T04:43:57.078Z,164.00
2018-04-07T04:44:57.183Z,180.00
2018-04-07T04:45:57.319Z,204.00
2018-04-07T04:46:57.432Z,228.00
2018-04-07T04:47:57.574Z,256.00
2018-04-07T04:48:57.704Z,280.00
2018-04-07T04:49:57.796Z,312.00
2018-04-07T04:50:57.884Z,340.00
2018-04-07T04:51:58.077Z,372.00
2018-04-07T04:52:58.196Z,404.00
2018-04-07T04:53:58.159Z,440.00
2018-04-07T04:54:58.345Z,472.00
2018-04-07T04:55:58.455Z,512.00
2018-04-07T04:56:58.550Z,552.00
2018-04-07T04:57:58.625Z,592.00
2018-04-07T04:58:58.717Z,636.00
2018-04-07T04:59:58.810Z,680.00
2018-04-07T05:00:58.906Z,724.00
2018-04-07T05:01:59.000Z,772.00
2018-04-07T05:02:59.104Z,824.00
2018-04-07T05:03:59.192Z,872.00
2018-04-07T05:04:59.268Z,920.00
2018-04-07T05:05:59.355Z,960.00
2018-04-07T05:06:59.520Z,1016.00
2018-04-07T05:07:59.499Z,1064.00
2018-04-07T05:08:59.623Z,1108.00
2018-04-07T05:09:59.720Z,1156.00
2018-04-07T05:10:59.862Z,1196.00
2018-04-07T05:11:59.974Z,1236.00
2018-04-07T05:13:00.086Z,1284.00
2018-04-07T05:14:00.106Z,1324.00
2018-04-07T05:15:00.242Z,1368.00
2018-04-07T05:16:00.288Z,1416.00
2018-04-07T05:17:00.385Z,1468.00
2018-04-07T05:18:00.500Z,1512.00
2018-04-07T05:19:00.595Z,1560.00
2018-04-07T05:20:00.685Z,1608.00
2018-04-07T05:21:00.772Z,1644.00
2018-04-07T05:22:00.870Z,1688.00
2018-04-07T05:23:00.953Z,1732.00
2018-04-07T05:24:01.053Z,1780.00
2018-04-07T05:25:01.132Z,1820.00
2018-04-07T05:26:01.222Z,1860.00
2018-04-07T05:27:01.312Z,1896.00
2018-04-07T05:28:01.427Z,1932.00
2018-04-07T05:29:01.510Z,1968.00
2018-04-07T05:30:01.590Z,2004.00
2018-04-07T05:31:01.684Z,2032.00
2018-04-07T05:32:01.793Z,2060.00
2018-04-07T05:33:01.894Z,2092.00
2018-04-07T05:34:01.947Z,2128.00
2018-04-07T05:35:02.124Z,2168.00
2018-04-07T05:36:02.097Z,2204.00
2018-04-07T05:37:02.188Z,2240.00
2018-04-07T05:38:02.273Z,2272.00
2018-04-07T05:39:02.395Z,2296.00
2018-04-07T05:40:02.479Z,2324.00
2018-04-07T05:41:02.569Z,2348.00
2018-04-07T05:42:02.657Z,2380.00
2018-04-07T05:43:02.788Z,2404.00
2018-04-07T05:44:02.864Z,2424.00
2018-04-07T05:45:02.953Z,2444.00
2018-04-07T05:46:03.044Z,2468.00
2018-04-07T05:47:03.133Z,2484.00
2018-04-07T05:48:03.223Z,2500.00
2018-04-07T05:49:03.311Z,2524.00
2018-04-07T05:50:03.391Z,2544.00
2018-04-07T05:51:03.500Z,2564.00
2018-04-07T05:52:03.589Z,2584.00
2018-04-07T05:53:03.683Z,2600.00
2018-04-07T05:54:03.771Z,2616.00
2018-04-07T05:55:03.858Z,2632.00
2018-04-07T05:56:03.958Z,2648.00
2018-04-07T05:57:04.049Z,2664.00
2018-04-07T05:58:04.133Z,2676.00
2018-04-07T05:59:04.225Z,2692.00
2018-04-07T06:00:04.316Z,2708.00
2018-04-07T06:01:04.413Z,2728.00
2018-04-07T06:02:04.499Z,2732.00
2018-04-07T06:03:04.589Z,2760.00
2018-04-07T06:04:04.678Z,2764.00
2018-04-07T06:05:04.770Z,2776.00
2018-04-07T06:06:04.857Z,2784.00
2018-04-07T06:07:04.944Z,2792.00
2018-04-07T06:08:05.032Z,2820.00
2018-04-07T06:09:05.121Z,2844.00
2018-04-07T06:10:05.211Z,2872.00
2018-04-07T06:11:05.305Z,2884.00
2018-04-07T06:12:05.398Z,2912.00
2018-04-07T06:13:05.487Z,2956.00
2018-04-07T06:14:05.580Z,3072.00
2018-04-07T06:15:05.682Z,3636.00
2018-04-07T06:16:05.772Z,6760.00
2018-04-07T06:17:05.863Z,11896.00
2018-04-07T06:18:05.959Z,17728.00
2018-04-07T06:19:06.051Z,21536.00
2018-04-07T06:20:06.138Z,20032.00
2018-04-07T06:21:06.231Z,18016.00
2018-04-07T06:22:06.320Z,16640.00
2018-04-07T06:23:06.404Z,17312.00
2018-04-07T06:24:06.489Z,20224.00
2018-04-07T06:25:06.579Z,20544.00
2018-04-07T06:26:06.672Z,19136.00
2018-04-07T06:27:06.762Z,17696.00
2018-04-07T06:28:06.852Z,17696.00
2018-04-07T06:29:06.942Z,19040.00
2018-04-07T06:30:07.051Z,19648.00
2018-04-07T06:31:07.141Z,19104.00
2018-04-07T06:32:07.232Z,17376.00
2018-04-07T06:33:07.326Z,16352.00
2018-04-07T06:34:07.404Z,18304.00
2018-04-07T06:35:07.513Z,18208.00
2018-04-07T06:36:07.605Z,16832.00
2018-04-07T06:37:07.691Z,14848.00
2018-04-07T06:38:07.785Z,13792.00
2018-04-07T06:39:07.877Z,14176.00
2018-04-07T06:40:07.979Z,15616.00
2018-04-07T06:41:08.072Z,16288.00
2018-04-07T06:42:08.165Z,15776.00
2018-04-07T06:43:08.257Z,15392.00
2018-04-07T06:44:08.350Z,14816.00
2018-04-07T06:45:08.445Z,14432.00
2018-04-07T06:46:08.537Z,14400.00
2018-04-07T06:47:08.632Z,14560.00
2018-04-07T06:48:08.754Z,14208.00
2018-04-07T06:49:08.827Z,13504.00
2018-04-07T06:50:08.923Z,12868.00
2018-04-07T06:51:09.021Z,12856.00
2018-04-07T06:52:09.115Z,12340.00
2018-04-07T06:53:09.211Z,11464.00
2018-04-07T06:54:09.304Z,11000.00
2018-04-07T06:55:09.404Z,11212.00
2018-04-07T06:56:09.499Z,11272.00
2018-04-07T06:57:09.596Z,11284.00
2018-04-07T06:58:09.691Z,10916.00
2018-04-07T06:59:09.787Z,10796.00
2018-04-07T07:00:09.884Z,10840.00
2018-04-07T07:01:09.973Z,10520.00
2018-04-07T07:02:10.071Z,10372.00
2018-04-07T07:03:10.169Z,10316.00
2018-04-07T07:04:10.269Z,10300.00
2018-04-07T07:05:10.366Z,10436.00
2018-04-07T07:06:10.462Z,10216.00
2018-04-07T07:07:10.560Z,9484.00
2018-04-07T07:08:10.655Z,9020.00
2018-04-07T07:09:10.751Z,9408.00
2018-04-07T07:10:10.850Z,9868.00
2018-04-07T07:11:10.946Z,9620.00
2018-04-07T07:12:11.046Z,9728.00
2018-04-07T07:13:11.141Z,9880.00
2018-04-07T07:14:11.241Z,9640.00
2018-04-07T07:15:11.337Z,9452.00
2018-04-07T07:16:11.436Z,9396.00
2018-04-07T07:17:11.533Z,8948.00
2018-04-07T07:18:11.636Z,8292.00
2018-04-07T07:19:11.732Z,8616.00
2018-04-07T07:20:11.828Z,8944.00
2018-04-07T07:21:11.916Z,8140.00
2018-04-07T07:22:12.027Z,7768.00
2018-04-07T07:23:12.126Z,7792.00
2018-04-07T07:24:12.232Z,7132.00
2018-04-07T07:25:12.323Z,6956.00
2018-04-07T07:26:12.420Z,6884.00
2018-04-07T07:27:12.517Z,6728.00
2018-04-07T07:28:12.608Z,6868.00
2018-04-07T07:29:12.710Z,6560.00
2018-04-07T07:30:12.810Z,6520.00
2018-04-07T07:31:12.905Z,6328.00
2018-04-07T07:32:13.007Z,6188.00
2018-04-07T07:33:13.105Z,6220.00
2018-04-07T07:34:13.207Z,5708.00
2018-04-07T07:35:13.303Z,4864.00
2018-04-07T07:36:13.401Z,4204.00
2018-04-07T07:37:13.501Z,4044.00
2018-04-07T07:38:13.598Z,4016.00
2018-04-07T07:39:13.695Z,4016.00
2018-04-07T07:40:13.795Z,4028.00
2018-04-07T07:41:13.896Z,4056.00
2018-04-07T07:42:13.996Z,4060.00
2018-04-07T07:43:14.091Z,4044.00
2018-04-07T07:44:14.190Z,3892.00
2018-04-07T07:45:14.288Z,4060.00
2018-04-07T07:46:14.384Z,4064.00
2018-04-07T07:47:14.479Z,4068.00
2018-04-07T07:48:14.579Z,4076.00
2018-04-07T07:49:14.674Z,4092.00
2018-04-07T07:50:14.771Z,4100.00
2018-04-07T07:51:14.870Z,4192.00
2018-04-07T07:52:14.967Z,4120.00
2018-04-07T07:53:15.067Z,4128.00
2018-04-07T07:54:15.163Z,4132.00
2018-04-07T07:55:15.255Z,4136.00
2018-04-07T07:56:15.351Z,4128.00
2018-04-07T07:57:15.449Z,4144.00
2018-04-07T07:58:15.552Z,4144.00
2018-04-07T07:59:15.644Z,4156.00
2018-04-07T08:00:15.741Z,4176.00
2018-04-07T08:01:15.845Z,4180.00
2018-04-07T08:02:15.948Z,4192.00
2018-04-07T08:03:16.043Z,4204.00
2018-04-07T08:04:16.152Z,4208.00
2018-04-07T08:05:16.238Z,4396.00
2018-04-07T08:06:16.335Z,4136.00
2018-04-07T08:07:16.433Z,4080.00
2018-04-07T08:08:16.537Z,3972.00
2018-04-07T08:09:16.629Z,4096.00
2018-04-07T08:10:16.728Z,4084.00
2018-04-07T08:11:16.817Z,4092.00
2018-04-07T08:12:16.912Z,4108.00
2018-04-07T08:13:17.012Z,3908.00
2018-04-07T08:14:17.112Z,4136.00
2018-04-07T08:15:17.211Z,4100.00
2018-04-07T08:16:17.314Z,4200.00
2018-04-07T08:17:17.408Z,4228.00
2018-04-07T08:18:17.503Z,4136.00
2018-04-07T08:19:17.601Z,4216.00
2018-04-07T08:20:17.697Z,4232.00
2018-04-07T08:21:17.792Z,4300.00
2018-04-07T08:22:17.890Z,4276.00
2018-04-07T08:23:17.987Z,4240.00
2018-04-07T08:24:18.103Z,4324.00
2018-04-07T08:25:18.201Z,4384.00
2018-04-07T08:26:18.300Z,4380.00
2018-04-07T08:27:18.395Z,4420.00
2018-04-07T08:28:18.492Z,4464.00
2018-04-07T08:29:18.588Z,4492.00
2018-04-07T08:30:18.684Z,4528.00
2018-04-07T08:31:18.781Z,4488.00
2018-04-07T08:32:18.884Z,4532.00
2018-04-07T08:33:18.982Z,4540.00
2018-04-07T08:34:19.079Z,4536.00
2018-04-07T08:35:19.171Z,4552.00
2018-04-07T08:36:19.273Z,4460.00
2018-04-07T08:37:19.368Z,4532.00
2018-04-07T08:38:19.461Z,4520.00
2018-04-07T08:39:19.589Z,4496.00
2018-04-07T08:40:19.653Z,4456.00
2018-04-07T08:41:19.749Z,4384.00
2018-04-07T08:42:19.883Z,4456.00
2018-04-07T08:43:19.946Z,4452.00
2018-04-07T08:44:20.046Z,4540.00
2018-04-07T08:45:20.154Z,4520.00
2018-04-07T08:46:20.246Z,4472.00
2018-04-07T08:47:20.339Z,4456.00
2018-04-07T08:48:20.436Z,4472.00
2018-04-07T08:49:20.537Z,4436.00
2018-04-07T08:50:20.634Z,4404.00
2018-04-07T08:51:20.741Z,4408.00
2018-04-07T08:52:20.845Z,4396.00
2018-04-07T08:53:20.934Z,4508.00
2018-04-07T08:54:21.070Z,4520.00
2018-04-07T08:55:21.963Z,4540.00
2018-04-07T08:56:21.335Z,4572.00
2018-04-07T08:57:21.449Z,4588.00
2018-04-07T08:58:21.537Z,4628.00
2018-04-07T08:59:21.638Z,4528.00
2018-04-07T09:00:21.798Z,4516.00
2018-04-07T09:01:21.760Z,4516.00
2018-04-07T09:02:21.861Z,4552.00
2018-04-07T09:03:21.978Z,4568.00
2018-04-07T09:04:22.081Z,4576.00
2018-04-07T09:05:22.171Z,4528.00
2018-04-07T09:06:22.278Z,4784.00
2018-04-07T09:07:22.391Z,4608.00
2018-04-07T09:08:22.534Z,4652.00
2018-04-07T09:09:22.637Z,4680.00
2018-04-07T09:10:22.742Z,4684.00
2018-04-07T09:11:22.825Z,4636.00
2018-04-07T09:12:22.951Z,4712.00
2018-04-07T09:13:23.029Z,4660.00
2018-04-07T09:14:23.160Z,4736.00
2018-04-07T09:15:23.249Z,4764.00
2018-04-07T09:16:23.367Z,4792.00
2018-04-07T09:17:23.574Z,4744.00
2018-04-07T09:18:23.556Z,4776.00
2018-04-07T09:19:23.699Z,4808.00
2018-04-07T09:20:23.733Z,4764.00
2018-04-07T09:21:23.702Z,4852.00
2018-04-07T09:22:23.822Z,4996.00
2018-04-07T09:23:23.923Z,4872.00
2018-04-07T09:24:24.019Z,4896.00
2018-04-07T09:25:24.111Z,4868.00
2018-04-07T09:26:24.259Z,4876.00
2018-04-07T09:27:24.343Z,4848.00
2018-04-07T09:28:24.481Z,4964.00
2018-04-07T09:29:24.599Z,4996.00
2018-04-07T09:30:24.857Z,4856.00
2018-04-07T09:31:24.912Z,4888.00
2018-04-07T09:32:24.944Z,4924.00
2018-04-07T09:33:25.097Z,4928.00
2018-04-07T09:34:25.093Z,4940.00
2018-04-07T09:35:25.209Z,4948.00
2018-04-07T09:36:25.303Z,4912.00
2018-04-07T09:37:25.404Z,4936.00
2018-04-07T09:38:25.544Z,4852.00
2018-04-07T09:39:25.599Z,4972.00
2018-04-07T09:40:25.733Z,4996.00
2018-04-07T09:41:25.861Z,5004.00
2018-04-07T09:42:26.002Z,5012.00
2018-04-07T09:43:26.102Z,5240.00
2018-04-07T09:44:26.200Z,5012.00
2018-04-07T09:45:26.292Z,5028.00
2018-04-07T09:46:26.417Z,5040.00
2018-04-07T09:47:26.577Z,5044.00
2018-04-07T09:48:26.673Z,4932.00
2018-04-07T09:49:26.762Z,4976.00
2018-04-07T09:50:26.858Z,5004.00
2018-04-07T09:51:26.960Z,5068.00
2018-04-07T09:52:27.063Z,5252.00
2018-04-07T09:53:27.175Z,5048.00
2018-04-07T09:54:27.264Z,5128.00
2018-04-07T09:55:27.392Z,5132.00
2018-04-07T09:56:27.536Z,5096.00
2018-04-07T09:57:27.634Z,5076.00
2018-04-07T09:58:27.733Z,5044.00
2018-04-07T09:59:27.835Z,5096.00
2018-04-07T10:00:27.929Z,5068.00
2018-04-07T10:01:28.070Z,5160.00
2018-04-07T10:02:28.181Z,5300.00
2018-04-07T10:03:28.277Z,5112.00
2018-04-07T10:04:28.367Z,5104.00
2018-04-07T10:05:28.451Z,5100.00
2018-04-07T10:06:28.545Z,5040.00
2018-04-07T10:07:28.663Z,5084.00
2018-04-07T10:08:28.770Z,5096.00
2018-04-07T10:09:28.877Z,5076.00
2018-04-07T10:10:28.973Z,5244.00
2018-04-07T10:11:29.061Z,5104.00
2018-04-07T10:12:29.155Z,5076.00
2018-04-07T10:13:29.277Z,5084.00
2018-04-07T10:14:29.425Z,5088.00
2018-04-07T10:15:29.547Z,5084.00
2018-04-07T10:16:30.546Z,5076.00
2018-04-07T10:17:29.772Z,6120.00
2018-04-07T10:18:29.870Z,5084.00
2018-04-07T10:19:29.986Z,5168.00
2018-04-07T10:20:30.107Z,5044.00
2018-04-07T10:21:30.204Z,5068.00
2018-04-07T10:22:30.367Z,5108.00
2018-04-07T10:23:30.355Z,5112.00
2018-04-07T10:24:30.472Z,5212.00
2018-04-07T10:25:30.577Z,5040.00
2018-04-07T10:26:30.669Z,5124.00
2018-04-07T10:27:30.784Z,5088.00
2018-04-07T10:28:30.907Z,5128.00
2018-04-07T10:29:31.004Z,5108.00
2018-04-07T10:30:32.106Z,5128.00
2018-04-07T10:31:31.193Z,5128.00
2018-04-07T10:32:31.281Z,5076.00
2018-04-07T10:33:31.401Z,4976.00
2018-04-07T10:34:31.499Z,5036.00
2018-04-07T10:35:31.598Z,5048.00
2018-04-07T10:36:31.710Z,5064.00
2018-04-07T10:37:31.811Z,5068.00
2018-04-07T10:38:31.906Z,5060.00
2018-04-07T10:39:32.002Z,5032.00
2018-04-07T10:40:32.140Z,5160.00
2018-04-07T10:41:32.242Z,6348.00
2018-04-07T10:42:32.341Z,5096.00
2018-04-07T10:43:32.458Z,5076.00
2018-04-07T10:44:32.554Z,5096.00
2018-04-07T10:45:32.647Z,5132.00
2018-04-07T10:46:32.740Z,5100.00
2018-04-07T10:47:32.875Z,5100.00
2018-04-07T10:48:32.984Z,5088.00
2018-04-07T10:49:33.058Z,5092.00
2018-04-07T10:50:33.151Z,5004.00
2018-04-07T10:51:33.245Z,5060.00
2018-04-07T10:52:33.419Z,5076.00
2018-04-07T10:53:33.544Z,5096.00
2018-04-07T10:54:33.643Z,5216.00
2018-04-07T10:55:33.838Z,5248.00
2018-04-07T10:56:33.823Z,5300.00
2018-04-07T10:57:33.925Z,5096.00
2018-04-07T10:58:34.045Z,5076.00
2018-04-07T10:59:34.109Z,5128.00
2018-04-07T11:00:34.229Z,5124.00
2018-04-07T11:01:34.302Z,5124.00
2018-04-07T11:02:34.416Z,5132.00
2018-04-07T11:03:34.527Z,5132.00
2018-04-07T11:04:34.673Z,5092.00
2018-04-07T11:05:34.725Z,5128.00
2018-04-07T11:06:34.913Z,5144.00
2018-04-07T11:07:34.889Z,5108.00
2018-04-07T11:08:35.034Z,5104.00
2018-04-07T11:09:35.048Z,5128.00
2018-04-07T11:10:35.206Z,5120.00
2018-04-07T11:11:35.255Z,5164.00
2018-04-07T11:12:35.309Z,5120.00
2018-04-07T11:13:35.406Z,5136.00
2018-04-07T11:14:35.508Z,5156.00
2018-04-07T11:15:35.590Z,5200.00
2018-04-07T11:16:35.696Z,5164.00
2018-04-07T11:17:35.822Z,5168.00
2018-04-07T11:18:35.925Z,5188.00
2018-04-07T11:19:36.082Z,5136.00
2018-04-07T11:20:36.182Z,5988.00
2018-04-07T11:21:36.286Z,5184.00
2018-04-07T11:22:36.395Z,5160.00
2018-04-07T11:23:36.481Z,5188.00
2018-04-07T11:24:36.580Z,5188.00
2018-04-07T11:25:36.683Z,5312.00
2018-04-07T11:26:36.789Z,5196.00
2018-04-07T11:27:36.895Z,5200.00
2018-04-07T11:28:37.008Z,5204.00
2018-04-07T11:29:37.087Z,5204.00
2018-04-07T11:30:37.188Z,5212.00
2018-04-07T11:31:37.287Z,5212.00
2018-04-07T11:32:37.388Z,5216.00
2018-04-07T11:33:37.490Z,5220.00
2018-04-07T11:34:37.584Z,5704.00
2018-04-07T11:35:37.676Z,5208.00
2018-04-07T11:36:37.776Z,5204.00
2018-04-07T11:37:37.890Z,5224.00
2018-04-07T11:38:38.042Z,5236.00
2018-04-07T11:39:38.086Z,5244.00
2018-04-07T11:40:38.188Z,5168.00
2018-04-07T11:41:38.291Z,5228.00
2018-04-07T11:42:38.394Z,5340.00
2018-04-07T11:43:38.508Z,5212.00
2018-04-07T11:44:38.598Z,5236.00
2018-04-07T11:45:38.693Z,5244.00
2018-04-07T11:46:38.797Z,5216.00
2018-04-07T11:47:38.891Z,5248.00
2018-04-07T11:48:38.988Z,5252.00
2018-04-07T11:49:39.107Z,5248.00
2018-04-07T11:50:39.203Z,5816.00
2018-04-07T11:51:39.303Z,5668.00
2018-04-07T11:52:39.404Z,5188.00
2018-04-07T11:53:39.503Z,5268.00
2018-04-07T11:54:39.601Z,5280.00
2018-04-07T11:55:39.702Z,5248.00
2018-04-07T11:56:39.801Z,5284.00
2018-04-07T11:57:39.906Z,5160.00
2018-04-07T11:58:40.002Z,5288.00
2018-04-07T11:59:40.097Z,5296.00
2018-04-07T12:00:40.195Z,5308.00
2018-04-07T12:01:40.288Z,5176.00
2018-04-07T12:02:40.408Z,5316.00
2018-04-07T12:03:40.502Z,5376.00
2018-04-07T12:04:40.598Z,5324.00
2018-04-07T12:05:40.700Z,5332.00
2018-04-07T12:06:40.799Z,5268.00
2018-04-07T12:07:40.898Z,5664.00
2018-04-07T12:08:41.009Z,5748.00
2018-04-07T12:09:41.094Z,5344.00
2018-04-07T12:10:41.197Z,5348.00
2018-04-07T12:11:41.353Z,5352.00
2018-04-07T12:12:41.400Z,5356.00
2018-04-07T12:13:41.500Z,5320.00
2018-04-07T12:14:41.605Z,5620.00
2018-04-07T12:15:41.707Z,5352.00
2018-04-07T12:16:41.810Z,5356.00
2018-04-07T12:17:41.914Z,5364.00
2018-04-07T12:18:42.016Z,5376.00
2018-04-07T12:19:42.139Z,5380.00
2018-04-07T12:20:42.242Z,5376.00
2018-04-07T12:21:42.410Z,5388.00
2018-04-07T12:22:42.387Z,5392.00
2018-04-07T12:23:42.488Z,5392.00
2018-04-07T12:24:42.679Z,5392.00
2018-04-07T12:25:42.653Z,5444.00
2018-04-07T12:26:42.791Z,5392.00
2018-04-07T12:27:42.894Z,5412.00
2018-04-07T12:28:42.995Z,5480.00
2018-04-07T12:29:43.097Z,5556.00
2018-04-07T12:30:43.200Z,5408.00